Time;durP1;ratioP1;P1;durP2;ratioP2;P2;SDS_P1;SDS_P2;PMS_P1;PMS_P2;Temp;Humidity;BMP_temperature;BMP_pressure;BME280_temperature;BME280_humidity;BME280_pressure;Samples;Min_cycle;Max_cycle;Signal;HPM_P1;HPM_P2
2023/04/29 00:00:23;;;;;;;32.13;19.02;;;;;;;-145.50;100.00;65435.88;5039255;28;20140;-74
2023/04/29 00:02:50;;;;;;;35.40;20.90;;;;;;;-145.50;100.00;65435.88;5045671;28;20052;-73
2023/04/29 00:05:17;;;;;;;36.13;20.27;;;;;;;-145.50;100.00;65435.88;5041328;28;20075;-73
2023/04/29 00:07:44;;;;;;;33.33;19.55;;;;;;;-145.50;100.00;65435.88;5046964;28;20482;-73
2023/04/29 00:10:13;;;;;;;34.35;20.48;;;;;;;-145.50;100.00;65435.88;5040802;28;20048;-74
2023/04/29 00:12:40;;;;;;;32.47;20.55;;;;;;;-145.50;100.00;65435.88;5045756;28;20084;-74
2023/04/29 00:15:07;;;;;;;34.92;20.05;;;;;;;-145.50;100.00;65435.88;5046712;28;20136;-74
2023/04/29 00:17:35;;;;;;;36.30;20.00;;;;;;;-145.50;100.00;65435.88;5020014;28;20053;-73
2023/04/29 00:20:03;;;;;;;36.60;20.23;;;;;;;-145.50;100.00;65435.88;5046899;28;20071;-73
2023/04/29 00:22:29;;;;;;;35.28;19.73;;;;;;;-145.50;100.00;65435.88;5035110;28;20057;-73
2023/04/29 00:24:56;;;;;;;33.97;22.02;;;;;;;-145.50;100.00;65435.88;5040775;28;20420;-73
2023/04/29 00:27:22;;;;;;;35.50;20.13;;;;;;;-145.50;100.00;65435.88;5029652;28;20064;-73
2023/04/29 00:29:49;;;;;;;37.15;21.58;;;;;;;-145.50;100.00;65435.88;5038357;28;20083;-74
2023/04/29 00:32:15;;;;;;;34.97;20.90;;;;;;;-145.50;100.00;65435.88;5025802;28;20053;-74
2023/04/29 00:34:42;;;;;;;38.47;21.45;;;;;;;-145.50;100.00;65435.88;5019849;28;20059;-72
2023/04/29 00:37:08;;;;;;;37.05;21.42;;;;;;;-145.50;100.00;65435.88;5043922;28;20051;-73
2023/04/29 00:39:35;;;;;;;35.25;20.95;;;;;;;-145.50;100.00;65435.88;5033399;28;20056;-73
2023/04/29 00:42:02;;;;;;;33.13;20.92;;;;;;;-145.50;100.00;65435.88;5051151;28;20057;-74
2023/04/29 00:44:29;;;;;;;34.17;19.80;;;;;;;-145.50;100.00;65435.88;5047875;28;20045;-73
2023/04/29 00:46:56;;;;;;;38.38;22.35;;;;;;;-145.50;100.00;65435.88;5039460;28;20052;-74
2023/04/29 00:49:22;;;;;;;31.48;19.63;;;;;;;-145.50;100.00;65435.88;5049811;28;20057;-73
2023/04/29 00:51:49;;;;;;;37.47;21.60;;;;;;;-145.50;100.00;65435.88;5016597;28;20141;-74
2023/04/29 00:54:16;;;;;;;31.58;20.15;;;;;;;-145.50;100.00;65435.88;5045410;28;20240;-74
2023/04/29 00:56:44;;;;;;;34.35;19.83;;;;;;;-145.50;100.00;65435.88;5021362;28;20071;-73
2023/04/29 00:59:11;;;;;;;33.80;20.52;;;;;;;-145.50;100.00;65435.88;5044312;28;20171;-73
2023/04/29 01:01:38;;;;;;;36.72;20.67;;;;;;;-145.50;100.00;65435.88;5044508;28;20053;-74
2023/04/29 01:04:05;;;;;;;32.03;20.50;;;;;;;-145.50;100.00;65435.88;5038122;28;20060;-74
2023/04/29 01:07:03;;;;;;;32.20;20.25;;;;;;;-145.50;100.00;65435.88;5025038;28;20061;-73
2023/04/29 01:09:51;;;;;;;33.30;19.87;;;;;;;-145.50;100.00;65435.88;5030547;28;20433;-74
2023/04/29 01:12:37;;;;;;;30.08;18.30;;;;;;;-145.50;100.00;65435.88;5042108;28;20057;-74
2023/04/29 01:15:22;;;;;;;29.70;17.95;;;;;;;-145.50;100.00;65435.88;5031090;28;20041;-74
2023/04/29 01:17:59;;;;;;;31.15;18.60;;;;;;;-145.50;100.00;65435.88;5044967;28;20492;-74
2023/04/29 01:20:26;;;;;;;32.13;17.88;;;;;;;-145.50;100.00;65435.88;5015866;28;20103;-74
2023/04/29 01:22:53;;;;;;;29.23;16.88;;;;;;;-145.50;100.00;65435.88;5042466;28;20088;-74
2023/04/29 01:25:19;;;;;;;27.52;17.90;;;;;;;-145.50;100.00;65435.88;5034211;28;20072;-73
2023/04/29 01:28:25;;;;;;;27.88;16.50;;;;;;;-145.50;100.00;65435.88;5037797;28;20071;-72
2023/04/29 01:31:23;;;;;;;28.08;16.90;;;;;;;-145.50;100.00;65435.88;5016537;28;20059;-73
2023/04/29 01:34:09;;;;;;;28.85;16.17;;;;;;;-145.50;100.00;65435.88;5024284;28;21472;-72
2023/04/29 01:37:09;;;;;;;29.77;17.33;;;;;;;-145.50;100.00;65435.88;5041482;28;20068;-74
2023/04/29 01:39:55;;;;;;;29.77;16.35;;;;;;;-145.50;100.00;65435.88;5031094;28;20041;-72
2023/04/29 01:42:28;;;;;;;27.45;17.02;;;;;;;-145.50;100.00;65435.88;5032549;28;20061;-73
2023/04/29 01:44:59;;;;;;;26.38;16.50;;;;;;;-145.50;100.00;65435.88;5037279;28;20045;-73
2023/04/29 01:47:26;;;;;;;25.55;14.13;;;;;;;-145.50;100.00;65435.88;5035590;28;20164;-72
2023/04/29 01:49:52;;;;;;;26.02;16.17;;;;;;;-145.50;100.00;65435.88;5034578;28;20049;-73
2023/04/29 01:52:19;;;;;;;26.30;15.13;;;;;;;-145.50;100.00;65435.88;5048292;28;20056;-73
2023/04/29 01:54:46;;;;;;;25.00;15.88;;;;;;;-145.50;100.00;65435.88;5027885;28;20057;-72
2023/04/29 01:57:12;;;;;;;28.63;15.80;;;;;;;-145.50;100.00;65435.88;5047810;28;20053;-73
2023/04/29 01:59:39;;;;;;;28.15;16.90;;;;;;;-145.50;100.00;65435.88;5046834;28;20270;-73
2023/04/29 02:02:06;;;;;;;29.73;15.00;;;;;;;-145.50;100.00;65435.88;5015116;28;20067;-74
2023/04/29 02:04:33;;;;;;;27.25;15.25;;;;;;;-145.50;100.00;65435.88;5054690;28;20061;-73
2023/04/29 02:07:00;;;;;;;25.08;15.38;;;;;;;-145.50;100.00;65435.88;5045612;28;20052;-73
2023/04/29 02:09:26;;;;;;;27.55;15.18;;;;;;;-145.50;100.00;65435.88;5054721;28;20080;-73
2023/04/29 02:11:53;;;;;;;28.42;16.92;;;;;;;-145.50;100.00;65435.88;5070030;28;20068;-72
2023/04/29 02:14:19;;;;;;;24.17;15.05;;;;;;;-145.50;100.00;65435.88;5051134;28;20056;-69
2023/04/29 02:16:46;;;;;;;25.77;15.02;;;;;;;-145.50;100.00;65435.88;5044120;28;20505;-69
2023/04/29 02:19:13;;;;;;;26.25;14.68;;;;;;;-145.50;100.00;65435.88;5021724;28;20110;-70
2023/04/29 02:21:39;;;;;;;22.17;13.90;;;;;;;-145.50;100.00;65435.88;5047191;28;20051;-69
2023/04/29 02:24:06;;;;;;;24.25;14.63;;;;;;;-145.50;100.00;65435.88;5040990;28;20048;-70
2023/04/29 02:26:33;;;;;;;25.98;13.82;;;;;;;-145.50;100.00;65435.88;5046435;28;20049;-69
2023/04/29 02:28:59;;;;;;;25.85;15.13;;;;;;;-145.50;100.00;65435.88;5042604;28;20049;-69
2023/04/29 02:31:27;;;;;;;25.88;14.85;;;;;;;-145.50;100.00;65435.88;5035634;28;20106;-71
2023/04/29 02:33:54;;;;;;;27.52;15.30;;;;;;;-145.50;100.00;65435.88;5028582;28;20059;-69
2023/04/29 02:36:21;;;;;;;29.55;16.02;;;;;;;-145.50;100.00;65435.88;5018686;28;20053;-71
2023/04/29 02:38:49;;;;;;;25.27;14.55;;;;;;;-145.50;100.00;65435.88;5047809;28;20068;-69
2023/04/29 02:41:17;;;;;;;25.85;15.10;;;;;;;-145.50;100.00;65435.88;5026210;28;20068;-69
2023/04/29 02:43:43;;;;;;;25.83;14.27;;;;;;;-145.50;100.00;65435.88;5053883;28;20049;-71
2023/04/29 02:46:10;;;;;;;27.40;14.55;;;;;;;-145.50;100.00;65435.88;5047382;28;20078;-71
2023/04/29 02:48:36;;;;;;;24.25;14.35;;;;;;;-145.50;100.00;65435.88;5042012;28;20052;-69
2023/04/29 02:51:03;;;;;;;21.48;14.27;;;;;;;-145.50;100.00;65435.88;5029502;28;20281;-69
2023/04/29 02:53:29;;;;;;;32.50;17.52;;;;;;;-145.50;100.00;65435.88;5041497;28;20052;-70
2023/04/29 02:55:56;;;;;;;24.90;15.80;;;;;;;-145.50;100.00;65435.88;5046716;28;20818;-69
2023/04/29 02:58:23;;;;;;;26.60;15.65;;;;;;;-145.50;100.00;65435.88;5047671;28;20064;-71
2023/04/29 03:00:49;;;;;;;27.63;15.52;;;;;;;-145.50;100.00;65435.88;5024969;28;20385;-69
2023/04/29 03:03:16;;;;;;;25.13;14.43;;;;;;;-145.50;100.00;65435.88;5046004;28;20549;-69
2023/04/29 03:05:43;;;;;;;24.77;15.07;;;;;;;-145.50;100.00;65435.88;5042966;28;20057;-71
2023/04/29 03:08:10;;;;;;;28.88;15.48;;;;;;;-145.50;100.00;65435.88;5045646;28;20092;-69
2023/04/29 03:10:36;;;;;;;26.70;14.27;;;;;;;-145.50;100.00;65435.88;5034880;28;20179;-70
2023/04/29 03:13:06;;;;;;;27.52;15.73;;;;;;;-145.50;100.00;65435.88;5039188;28;20432;-70
2023/04/29 03:15:33;;;;;;;23.38;13.95;;;;;;;-145.50;100.00;65435.88;5045448;28;20061;-71
2023/04/29 03:18:00;;;;;;;27.27;14.48;;;;;;;-145.50;100.00;65435.88;5020748;28;20611;-69
2023/04/29 03:20:28;;;;;;;26.85;15.25;;;;;;;-145.50;100.00;65435.88;5046262;28;20490;-68
2023/04/29 03:22:55;;;;;;;25.87;14.60;;;;;;;-145.50;100.00;65435.88;5038441;28;20460;-69
2023/04/29 03:25:21;;;;;;;20.65;11.77;;;;;;;-145.50;100.00;65435.88;5040581;28;20048;-69
2023/04/29 03:27:48;;;;;;;26.58;15.32;;;;;;;-145.50;100.00;65435.88;5016729;28;20549;-70
2023/04/29 03:30:15;;;;;;;23.50;14.52;;;;;;;-145.50;100.00;65435.88;5047636;28;20272;-69
2023/04/29 03:32:42;;;;;;;26.48;15.15;;;;;;;-145.50;100.00;65435.88;5045214;28;20051;-70
2023/04/29 03:35:10;;;;;;;26.55;15.00;;;;;;;-145.50;100.00;65435.88;5020955;28;20493;-70
2023/04/29 03:37:43;;;;;;;25.08;14.40;;;;;;;-145.50;100.00;65435.88;5043312;28;20122;-69
2023/04/29 03:40:10;;;;;;;22.20;13.45;;;;;;;-145.50;100.00;65435.88;5034523;28;20055;-69
2023/04/29 03:42:37;;;;;;;24.23;14.27;;;;;;;-145.50;100.00;65435.88;5042353;28;20483;-71
2023/04/29 03:45:05;;;;;;;25.60;14.02;;;;;;;-145.50;100.00;65435.88;5035110;28;20298;-69
2023/04/29 03:47:31;;;;;;;24.13;14.02;;;;;;;-145.50;100.00;65435.88;5026321;28;20064;-69
2023/04/29 03:49:58;;;;;;;27.67;14.60;;;;;;;-145.50;100.00;65435.88;5037191;28;20521;-69
2023/04/29 03:52:27;;;;;;;23.80;13.60;;;;;;;-145.50;100.00;65435.88;5039023;28;20049;-70
2023/04/29 03:54:53;;;;;;;23.00;14.38;;;;;;;-145.50;100.00;65435.88;5040918;28;20057;-70
2023/04/29 03:57:20;;;;;;;24.50;14.38;;;;;;;-145.50;100.00;65435.88;5018256;28;20064;-69
2023/04/29 03:59:49;;;;;;;24.83;14.27;;;;;;;-145.50;100.00;65435.88;5045251;28;20053;-69
2023/04/29 04:02:16;;;;;;;25.13;15.50;;;;;;;-145.50;100.00;65435.88;5038588;28;20053;-69
2023/04/29 04:04:43;;;;;;;24.63;14.05;;;;;;;-145.50;100.00;65435.88;5046015;28;20116;-70
2023/04/29 04:07:10;;;;;;;26.08;15.73;;;;;;;-145.50;100.00;65435.88;5041424;28;20080;-69
2023/04/29 04:09:37;;;;;;;24.02;14.02;;;;;;;-145.50;100.00;65435.88;5017357;28;20424;-70
2023/04/29 04:12:05;;;;;;;25.30;15.25;;;;;;;-145.50;100.00;65435.88;5045800;28;20044;-69
2023/04/29 04:14:31;;;;;;;20.75;12.38;;;;;;;-145.50;100.00;65435.88;5038890;28;20514;-69
2023/04/29 04:16:58;;;;;;;22.58;12.70;;;;;;;-145.50;100.00;65435.88;5027821;28;20053;-69
2023/04/29 04:19:25;;;;;;;25.33;14.75;;;;;;;-145.50;100.00;65435.88;5021434;28;20052;-69
2023/04/29 04:21:52;;;;;;;25.98;14.90;;;;;;;-145.50;100.00;65435.88;5038996;28;20045;-68
2023/04/29 04:24:18;;;;;;;23.92;13.88;;;;;;;-145.50;100.00;65435.88;5040522;28;20077;-69
2023/04/29 04:26:45;;;;;;;21.25;13.60;;;;;;;-145.50;100.00;65435.88;5020433;28;20056;-69
2023/04/29 04:29:12;;;;;;;27.00;14.48;;;;;;;-145.50;100.00;65435.88;5043325;28;20059;-69
2023/04/29 04:31:42;;;;;;;21.90;14.68;;;;;;;-145.50;100.00;65435.88;5020094;28;20090;-71
2023/04/29 04:34:12;;;;;;;24.85;14.40;;;;;;;-145.50;100.00;65435.88;5044720;28;20052;-69
2023/04/29 04:36:39;;;;;;;19.23;12.73;;;;;;;-145.50;100.00;65435.88;5033660;28;20052;-71
2023/04/29 04:39:05;;;;;;;23.13;12.52;;;;;;;-145.50;100.00;65435.88;5048449;28;20569;-69
2023/04/29 04:41:32;;;;;;;22.00;13.10;;;;;;;-145.50;100.00;65435.88;5045113;28;20274;-69
2023/04/29 04:43:58;;;;;;;28.05;13.90;;;;;;;-145.50;100.00;65435.88;5020374;28;20048;-69
2023/04/29 04:46:25;;;;;;;24.33;13.25;;;;;;;-145.50;100.00;65435.88;5042966;28;20057;-68
2023/04/29 04:48:51;;;;;;;22.90;14.10;;;;;;;-145.50;100.00;65435.88;5037721;28;20053;-70
2023/04/29 04:51:18;;;;;;;24.70;14.40;;;;;;;-145.50;100.00;65435.88;5039536;28;20687;-69
2023/04/29 04:53:44;;;;;;;22.75;13.48;;;;;;;-145.50;100.00;65435.88;5025894;28;20056;-70
2023/04/29 04:56:11;;;;;;;26.42;15.30;;;;;;;-145.50;100.00;65435.88;5037697;28;20053;-69
2023/04/29 04:58:37;;;;;;;21.27;13.32;;;;;;;-145.50;100.00;65435.88;5044977;28;20059;-69
2023/04/29 05:01:04;;;;;;;20.02;13.45;;;;;;;-145.50;100.00;65435.88;5019537;28;20052;-69
2023/04/29 05:03:31;;;;;;;20.85;13.23;;;;;;;-145.50;100.00;65435.88;5041328;28;20460;-69
2023/04/29 05:05:59;;;;;;;20.65;13.65;;;;;;;-145.50;100.00;65435.88;5034346;28;20508;-68
2023/04/29 05:08:26;;;;;;;21.05;13.10;;;;;;;-145.50;100.00;65435.88;5043731;28;20057;-69
2023/04/29 05:10:52;;;;;;;20.52;13.02;;;;;;;-145.50;100.00;65435.88;5025455;28;20097;-69
2023/04/29 05:13:20;;;;;;;16.85;10.68;;;;;;;-145.50;100.00;65435.88;5038287;28;20084;-68
2023/04/29 05:15:46;;;;;;;24.40;13.07;;;;;;;-145.50;100.00;65435.88;5045875;28;20057;-70
2023/04/29 05:18:16;;;;;;;17.95;11.55;;;;;;;-145.50;100.00;65435.88;5025607;28;20344;-71
2023/04/29 05:20:42;;;;;;;21.02;12.77;;;;;;;-145.50;100.00;65435.88;5048697;28;20076;-69
2023/04/29 05:23:09;;;;;;;18.73;13.45;;;;;;;-145.50;100.00;65435.88;5042347;28;20045;-69
2023/04/29 05:25:35;;;;;;;20.55;13.68;;;;;;;-145.50;100.00;65435.88;5043426;28;20616;-69
2023/04/29 05:28:03;;;;;;;19.10;12.63;;;;;;;-145.50;100.00;65435.88;5026178;28;20417;-69
2023/04/29 05:30:30;;;;;;;17.98;13.57;;;;;;;-145.50;100.00;65435.88;5036867;28;20052;-69
2023/04/29 05:32:57;;;;;;;19.17;13.55;;;;;;;-145.50;100.00;65435.88;5048566;28;20049;-69
2023/04/29 05:35:24;;;;;;;18.25;12.02;;;;;;;-145.50;100.00;65435.88;5041139;28;20061;-70
2023/04/29 05:37:50;;;;;;;21.08;13.00;;;;;;;-145.50;100.00;65435.88;5047399;28;20418;-69
2023/04/29 05:40:17;;;;;;;19.50;12.13;;;;;;;-145.50;100.00;65435.88;5040134;28;20057;-70
2023/04/29 05:42:44;;;;;;;24.05;13.02;;;;;;;-145.50;100.00;65435.88;5026721;28;20080;-69
2023/04/29 05:45:11;;;;;;;20.00;12.90;;;;;;;-145.50;100.00;65435.88;5042444;28;20144;-71
2023/04/29 05:47:37;;;;;;;20.00;12.40;;;;;;;-145.50;100.00;65435.88;5043060;28;20408;-71
2023/04/29 05:50:05;;;;;;;19.50;12.75;;;;;;;-145.50;100.00;65435.88;5051729;28;20044;-68
2023/04/29 05:52:31;;;;;;;18.98;13.07;;;;;;;-145.50;100.00;65435.88;5030550;28;20048;-69
2023/04/29 05:54:58;;;;;;;18.48;13.13;;;;;;;-145.50;100.00;65435.88;5028415;28;20131;-71
2023/04/29 05:57:24;;;;;;;18.25;12.57;;;;;;;-145.50;100.00;65435.88;5036096;28;20531;-70
2023/04/29 05:59:54;;;;;;;19.10;13.73;;;;;;;-145.50;100.00;65435.88;5053218;28;20049;-68
2023/04/29 06:02:21;;;;;;;21.52;14.15;;;;;;;-145.50;100.00;65435.88;5047461;28;20417;-70
2023/04/29 06:04:48;;;;;;;21.95;13.25;;;;;;;-145.50;100.00;65435.88;5023504;28;20491;-70
2023/04/29 06:07:15;;;;;;;19.20;12.20;;;;;;;-145.50;100.00;65435.88;5047552;28;20375;-70
2023/04/29 06:09:45;;;;;;;18.23;12.68;;;;;;;-145.50;100.00;65435.88;5037050;28;20302;-70
2023/04/29 06:12:12;;;;;;;23.40;13.85;;;;;;;-145.50;100.00;65435.88;5023977;28;20270;-70
2023/04/29 06:14:38;;;;;;;21.50;12.75;;;;;;;-145.50;100.00;65435.88;5042650;28;20084;-69
2023/04/29 06:17:05;;;;;;;23.17;12.90;;;;;;;-145.50;100.00;65435.88;5047666;28;20052;-69
2023/04/29 06:19:32;;;;;;;21.88;13.57;;;;;;;-145.50;100.00;65435.88;5048311;28;20055;-69
2023/04/29 06:21:59;;;;;;;24.45;14.00;;;;;;;-145.50;100.00;65435.88;5037227;28;20056;-69
2023/04/29 06:24:26;;;;;;;22.42;13.70;;;;;;;-145.50;100.00;65435.88;5043720;28;20127;-69
2023/04/29 06:26:52;;;;;;;24.27;13.52;;;;;;;-145.50;100.00;65435.88;5034953;28;20111;-69
2023/04/29 06:29:19;;;;;;;22.35;14.25;;;;;;;-145.50;100.00;65435.88;5051052;28;20048;-69
2023/04/29 06:31:45;;;;;;;22.70;13.55;;;;;;;-145.50;100.00;65435.88;5043852;28;20784;-71
2023/04/29 06:34:12;;;;;;;22.48;13.35;;;;;;;-145.50;100.00;65435.88;5047015;28;20053;-70
2023/04/29 06:36:38;;;;;;;23.10;13.85;;;;;;;-145.50;100.00;65435.88;5028758;28;20049;-70
2023/04/29 06:39:05;;;;;;;22.45;13.00;;;;;;;-145.50;100.00;65435.88;5035648;28;20478;-69
2023/04/29 06:41:33;;;;;;;24.00;13.15;;;;;;;-145.50;100.00;65435.88;5042274;28;20057;-70
2023/04/29 06:44:00;;;;;;;22.10;13.35;;;;;;;-145.50;100.00;65435.88;5043832;28;20088;-69
2023/04/29 06:46:27;;;;;;;25.38;14.20;;;;;;;-145.50;100.00;65435.88;5028275;28;20569;-70
2023/04/29 06:48:54;;;;;;;18.95;13.23;;;;;;;-145.50;100.00;65435.88;5047558;28;20052;-71
2023/04/29 06:51:21;;;;;;;19.70;13.60;;;;;;;-145.50;100.00;65435.88;5043097;28;20055;-70
2023/04/29 06:53:47;;;;;;;19.65;13.68;;;;;;;-145.50;100.00;65435.88;5041737;28;20578;-71
2023/04/29 06:56:14;;;;;;;19.50;13.43;;;;;;;-145.50;100.00;65435.88;5033914;28;20049;-70
2023/04/29 06:58:42;;;;;;;20.67;13.32;;;;;;;-145.50;100.00;65435.88;5046273;28;20077;-69
2023/04/29 07:01:09;;;;;;;23.35;12.75;;;;;;;-145.50;100.00;65435.88;5021221;28;20271;-69
2023/04/29 07:03:36;;;;;;;21.02;12.65;;;;;;;-145.50;100.00;65435.88;5028286;28;20414;-71
2023/04/29 07:06:03;;;;;;;21.30;13.13;;;;;;;-145.50;100.00;65435.88;5042861;28;20041;-71
2023/04/29 07:08:31;;;;;;;17.85;12.70;;;;;;;-145.50;100.00;65435.88;5035167;28;20052;-69
2023/04/29 07:10:57;;;;;;;21.42;13.25;;;;;;;-145.50;100.00;65435.88;5041246;28;20076;-70
2023/04/29 07:13:25;;;;;;;18.98;12.80;;;;;;;-145.50;100.00;65435.88;5044960;28;20497;-69
2023/04/29 07:15:51;;;;;;;22.23;13.25;;;;;;;-145.50;100.00;65435.88;5048812;28;20515;-69
2023/04/29 07:18:18;;;;;;;19.92;13.55;;;;;;;-145.50;100.00;65435.88;5039671;28;20056;-72
2023/04/29 07:20:46;;;;;;;18.55;11.90;;;;;;;-145.50;100.00;65435.88;5045049;28;20480;-69
2023/04/29 07:23:13;;;;;;;19.63;12.00;;;;;;;-145.50;100.00;65435.88;5041984;28;20083;-72
2023/04/29 07:25:40;;;;;;;20.73;11.73;;;;;;;-145.50;100.00;65435.88;5035627;28;20053;-69
2023/04/29 07:28:08;;;;;;;18.48;11.73;;;;;;;-145.50;100.00;65435.88;5046779;28;20064;-72
2023/04/29 07:30:35;;;;;;;16.60;11.35;;;;;;;-145.50;100.00;65435.88;5040723;28;20057;-70
2023/04/29 07:33:03;;;;;;;20.35;11.80;;;;;;;-145.50;100.00;65435.88;5047025;28;20103;-70
2023/04/29 07:35:29;;;;;;;17.08;10.93;;;;;;;-145.50;100.00;65435.88;5044699;28;20041;-70
2023/04/29 07:37:56;;;;;;;19.60;11.18;;;;;;;-145.50;100.00;65435.88;5013243;28;20072;-71
2023/04/29 07:40:22;;;;;;;19.40;10.88;;;;;;;-145.50;100.00;65435.88;5045501;28;20052;-70
2023/04/29 07:42:49;;;;;;;19.05;12.30;;;;;;;-145.50;100.00;65435.88;5038346;28;20057;-70
2023/04/29 07:45:16;;;;;;;17.58;10.95;;;;;;;-145.50;100.00;65435.88;5044205;28;20056;-70
2023/04/29 07:47:43;;;;;;;18.27;11.93;;;;;;;-145.50;100.00;65435.88;5039588;28;20597;-71
2023/04/29 07:50:10;;;;;;;17.15;10.65;;;;;;;-145.50;100.00;65435.88;5019563;28;20430;-71
2023/04/29 07:52:36;;;;;;;17.27;11.63;;;;;;;-145.50;100.00;65435.88;5042337;28;20493;-71
2023/04/29 07:55:03;;;;;;;17.02;10.88;;;;;;;-145.50;100.00;65435.88;5038543;28;20150;-71
2023/04/29 07:57:29;;;;;;;15.77;10.45;;;;;;;-145.50;100.00;65435.88;5026555;28;20084;-70
2023/04/29 07:59:56;;;;;;;15.13;10.18;;;;;;;-145.50;100.00;65435.88;5037686;28;20048;-70
2023/04/29 08:02:22;;;;;;;19.02;10.68;;;;;;;-145.50;100.00;65435.88;5046708;28;20564;-71
2023/04/29 08:04:49;;;;;;;15.68;9.90;;;;;;;-145.50;100.00;65435.88;5020370;28;20041;-71
2023/04/29 08:07:17;;;;;;;16.85;10.60;;;;;;;-145.50;100.00;65435.88;5044872;28;20056;-70
2023/04/29 08:09:44;;;;;;;17.52;10.18;;;;;;;-145.50;100.00;65435.88;5045106;28;20059;-70
2023/04/29 08:12:10;;;;;;;15.02;9.52;;;;;;;-145.50;100.00;65435.88;5037156;28;20471;-70
2023/04/29 08:14:36;;;;;;;18.45;9.55;;;;;;;-145.50;100.00;65435.88;5018494;28;20056;-71
2023/04/29 08:17:03;;;;;;;17.15;9.55;;;;;;;-145.50;100.00;65435.88;5033401;28;20107;-71
2023/04/29 08:19:30;;;;;;;14.90;8.38;;;;;;;-145.50;100.00;65435.88;5044165;28;20063;-70
2023/04/29 08:21:57;;;;;;;14.57;8.70;;;;;;;-145.50;100.00;65435.88;5045026;28;20151;-70
2023/04/29 08:24:23;;;;;;;12.88;8.43;;;;;;;-145.50;100.00;65435.88;5037843;28;20538;-70
2023/04/29 08:26:51;;;;;;;17.23;9.07;;;;;;;-145.50;100.00;65435.88;5044603;28;20045;-71
2023/04/29 08:29:17;;;;;;;15.38;8.15;;;;;;;-145.50;100.00;65435.88;5015851;28;20057;-70
2023/04/29 08:31:44;;;;;;;13.68;7.72;;;;;;;-145.50;100.00;65435.88;5023361;28;20058;-69
2023/04/29 08:34:10;;;;;;;13.90;7.93;;;;;;;-145.50;100.00;65435.88;5039147;28;20049;-71
2023/04/29 08:36:37;;;;;;;15.93;8.55;;;;;;;-145.50;100.00;65435.88;5045044;28;20060;-72
2023/04/29 08:39:04;;;;;;;12.00;8.35;;;;;;;-145.50;100.00;65435.88;5041037;28;20176;-70
2023/04/29 08:41:32;;;;;;;13.15;8.02;;;;;;;-145.50;100.00;65435.88;5037497;28;20111;-70
2023/04/29 08:43:59;;;;;;;14.18;8.82;;;;;;;-145.50;100.00;65435.88;5043686;28;20136;-72
2023/04/29 08:46:26;;;;;;;10.33;7.47;;;;;;;-145.50;100.00;65435.88;5030893;28;20049;-70
2023/04/29 08:48:55;;;;;;;16.75;8.88;;;;;;;-145.50;100.00;65435.88;5049251;28;20056;-71
2023/04/29 08:51:21;;;;;;;13.85;8.35;;;;;;;-145.50;100.00;65435.88;5043632;28;20410;-72
2023/04/29 08:53:48;;;;;;;15.98;8.73;;;;;;;-145.50;100.00;65435.88;5042815;28;20167;-70
2023/04/29 08:56:19;;;;;;;15.55;8.35;;;;;;;-145.50;100.00;65435.88;5031028;28;20380;-70
2023/04/29 08:58:53;;;;;;;14.13;8.27;;;;;;;-145.50;100.00;65435.88;5024396;28;20107;-71
2023/04/29 09:01:21;;;;;;;13.77;8.05;;;;;;;-145.50;100.00;65435.88;5020197;28;20150;-72
2023/04/29 09:03:55;;;;;;;12.15;8.23;;;;;;;-145.50;100.00;65435.88;5039314;28;20057;-70
2023/04/29 09:06:22;;;;;;;16.30;8.40;;;;;;;-145.50;100.00;65435.88;5030319;28;20116;-71
2023/04/29 09:08:49;;;;;;;12.88;7.53;;;;;;;-145.50;100.00;65435.88;5031083;28;20132;-70
2023/04/29 09:11:16;;;;;;;11.98;7.43;;;;;;;-145.50;100.00;65435.88;5036533;28;20138;-70
2023/04/29 09:13:42;;;;;;;12.13;7.90;;;;;;;-145.50;100.00;65435.88;5042998;28;20053;-70
2023/04/29 09:16:11;;;;;;;12.38;7.80;;;;;;;-145.50;100.00;65435.88;5041703;28;20376;-69
2023/04/29 09:18:50;;;;;;;13.50;8.75;;;;;;;-145.50;100.00;65435.88;5034367;28;20053;-72
2023/04/29 09:21:20;;;;;;;12.25;7.45;;;;;;;-145.50;100.00;65435.88;5034889;28;20049;-70
2023/04/29 09:23:58;;;;;;;14.73;7.63;;;;;;;-145.50;100.00;65435.88;5030043;28;20072;-72
2023/04/29 09:26:26;;;;;;;10.25;6.50;;;;;;;-145.50;100.00;65435.88;5036679;28;20532;-70
2023/04/29 09:29:06;;;;;;;9.65;7.28;;;;;;;-145.50;100.00;65435.88;5025335;28;20053;-71
2023/04/29 09:31:33;;;;;;;11.05;6.50;;;;;;;-145.50;100.00;65435.88;5052544;28;20048;-71
2023/04/29 09:33:59;;;;;;;11.40;6.22;;;;;;;-145.50;100.00;65435.88;5042706;28;20048;-69
2023/04/29 09:36:46;;;;;;;12.43;7.30;;;;;;;-145.50;100.00;65435.88;5047414;28;20409;-70
2023/04/29 09:39:19;;;;;;;9.07;6.18;;;;;;;-145.50;100.00;65435.88;5033141;28;20067;-73
2023/04/29 09:41:49;;;;;;;9.70;6.43;;;;;;;-145.50;100.00;65435.88;5040999;28;20135;-70
2023/04/29 09:44:16;;;;;;;8.10;5.70;;;;;;;-145.50;100.00;65435.88;5040308;28;20088;-71
2023/04/29 09:46:42;;;;;;;11.35;5.65;;;;;;;-145.50;100.00;65435.88;5047078;28;20072;-70
2023/04/29 09:49:26;;;;;;;12.50;5.85;;;;;;;-145.50;100.00;65435.88;5030425;28;20098;-70
2023/04/29 09:51:54;;;;;;;9.13;5.13;;;;;;;-145.50;100.00;65435.88;5047274;28;20136;-71
2023/04/29 09:54:22;;;;;;;9.45;6.10;;;;;;;-145.50;100.00;65435.88;5032276;28;20382;-70
2023/04/29 09:56:51;;;;;;;9.30;5.35;;;;;;;-145.50;100.00;65435.88;5039085;28;20063;-69
2023/04/29 09:59:19;;;;;;;7.78;5.03;;;;;;;-145.50;100.00;65435.88;5047602;28;20881;-69
2023/04/29 10:01:50;;;;;;;7.93;4.53;;;;;;;-145.50;100.00;65435.88;5041199;28;20466;-70
2023/04/29 10:04:18;;;;;;;12.23;5.65;;;;;;;-145.50;100.00;65435.88;5046374;28;20372;-71
2023/04/29 10:06:48;;;;;;;6.85;4.90;;;;;;;-145.50;100.00;65435.88;5033355;28;20085;-73
2023/04/29 10:09:16;;;;;;;7.57;4.88;;;;;;;-145.50;100.00;65435.88;5043043;28;20060;-70
2023/04/29 10:12:02;;;;;;;7.28;5.40;;;;;;;-145.50;100.00;65435.88;5021235;28;20052;-71
2023/04/29 10:14:32;;;;;;;7.40;5.20;;;;;;;-145.50;100.00;65435.88;5039553;28;20048;-71
2023/04/29 10:17:08;;;;;;;8.13;4.95;;;;;;;-145.50;100.00;65435.88;5040053;28;20102;-72
2023/04/29 10:19:41;;;;;;;14.68;5.63;;;;;;;-145.50;100.00;65435.88;5022545;28;20091;-70
2023/04/29 10:22:14;;;;;;;7.47;5.43;;;;;;;-145.50;100.00;65435.88;5043225;28;20084;-71
2023/04/29 10:24:42;;;;;;;9.13;5.28;;;;;;;-145.50;100.00;65435.88;5036620;28;20418;-72
2023/04/29 10:27:11;;;;;;;7.33;4.47;;;;;;;-145.50;100.00;65435.88;5047090;28;20059;-70
2023/04/29 10:29:40;;;;;;;8.13;4.82;;;;;;;-145.50;100.00;65435.88;5029993;28;20296;-71
2023/04/29 10:32:09;;;;;;;6.78;4.28;;;;;;;-145.50;100.00;65435.88;5034075;28;20049;-70
2023/04/29 10:34:37;;;;;;;8.73;5.20;;;;;;;-145.50;100.00;65435.88;5045290;28;20393;-70
2023/04/29 10:37:07;;;;;;;8.02;4.40;;;;;;;-145.50;100.00;65435.88;5024024;28;20084;-72
2023/04/29 10:39:59;;;;;;;8.88;4.40;;;;;;;-145.50;100.00;65435.88;5047684;28;20080;-70
2023/04/29 10:42:41;;;;;;;7.80;4.35;;;;;;;-145.50;100.00;65435.88;5037939;28;20057;-70
2023/04/29 10:45:19;;;;;;;8.00;4.25;;;;;;;-145.50;100.00;65435.88;5049770;28;20053;-71
2023/04/29 10:48:01;;;;;;;7.07;4.20;;;;;;;-145.50;100.00;65435.88;5043095;28;20057;-71
2023/04/29 10:50:29;;;;;;;7.45;4.03;;;;;;;-145.50;100.00;65435.88;5029202;28;20602;-71
2023/04/29 10:52:56;;;;;;;6.00;3.78;;;;;;;-145.50;100.00;65435.88;5048787;28;20033;-73
2023/04/29 10:55:24;;;;;;;7.57;4.32;;;;;;;-145.50;100.00;65435.88;5058595;28;20300;-71
2023/04/29 10:57:57;;;;;;;7.45;4.32;;;;;;;-145.50;100.00;65435.88;5058103;28;20800;-71
2023/04/29 11:00:28;;;;;;;7.78;4.50;;;;;;;-145.50;100.00;65435.88;5044830;28;20063;-72
2023/04/29 11:03:01;;;;;;;8.23;4.60;;;;;;;-145.50;100.00;65435.88;5026277;28;20502;-69